createdAt,value
2022-11-25T00:00:11.015Z,3.28
2022-11-25T00:02:58.443Z,2.80
2022-11-25T00:05:45.588Z,3.00
2022-11-25T00:08:34.190Z,3.28
2022-11-25T00:11:21.567Z,3.00
2022-11-25T00:14:11.102Z,3.63
2022-11-25T00:16:58.068Z,3.53
2022-11-25T00:19:45.085Z,3.30
2022-11-25T00:22:32.481Z,3.20
2022-11-25T00:25:21.139Z,2.92
2022-11-25T00:28:08.418Z,2.90
2022-11-25T00:30:55.636Z,3.65
2022-11-25T00:33:43.474Z,3.13
2022-11-25T00:36:32.028Z,3.22
2022-11-25T00:39:20.018Z,3.10
2022-11-25T00:42:26.231Z,3.63
2022-11-25T00:45:13.283Z,3.22
2022-11-25T00:48:00.566Z,3.03
2022-11-25T00:50:47.832Z,3.20
2022-11-25T00:53:35.019Z,3.50
2022-11-25T00:56:23.557Z,3.28
2022-11-25T00:59:12.075Z,3.03
2022-11-25T01:01:59.046Z,2.95
2022-11-25T01:04:46.128Z,2.58
2022-11-25T01:07:33.521Z,2.60
2022-11-25T01:10:20.648Z,2.95
2022-11-25T01:13:07.752Z,3.88
2022-11-25T01:15:58.751Z,3.80
2022-11-25T01:18:48.837Z,3.65
2022-11-25T01:21:38.471Z,3.75
2022-11-25T01:24:28.919Z,3.95
2022-11-25T01:27:18.654Z,3.30
2022-11-25T01:30:08.681Z,3.75
2022-11-25T01:32:59.474Z,4.43
2022-11-25T01:35:49.022Z,3.60
2022-11-25T01:38:37.527Z,3.45
2022-11-25T01:41:27.341Z,3.35
2022-11-25T01:44:17.212Z,4.20
2022-11-25T01:47:08.335Z,3.63
2022-11-25T01:50:02.591Z,3.58
2022-11-25T01:52:53.646Z,3.75
2022-11-25T01:55:44.858Z,4.07
2022-11-25T01:58:36.626Z,3.30
2022-11-25T02:01:25.330Z,4.07
2022-11-25T02:04:15.863Z,3.78
2022-11-25T02:07:07.066Z,3.63
2022-11-25T02:09:56.765Z,4.07
2022-11-25T02:12:47.586Z,4.30
2022-11-25T02:15:37.221Z,3.42
2022-11-25T02:18:28.070Z,4.28
2022-11-25T02:21:15.920Z,4.32
2022-11-25T02:24:09.672Z,5.05
2022-11-25T02:26:58.402Z,4.00
2022-11-25T02:29:45.854Z,3.70
2022-11-25T02:32:33.017Z,3.70
2022-11-25T02:35:28.146Z,4.35
2022-11-25T02:38:17.410Z,3.90
2022-11-25T02:41:06.266Z,3.63
2022-11-25T02:43:54.794Z,4.47
2022-11-25T02:46:42.255Z,4.40
2022-11-25T02:49:29.516Z,3.60
2022-11-25T02:52:16.850Z,3.75
2022-11-25T02:55:04.125Z,4.60
2022-11-25T02:57:51.395Z,4.05
2022-11-25T03:00:40.181Z,3.70
2022-11-25T03:03:27.379Z,3.90
2022-11-25T03:06:14.666Z,3.55
2022-11-25T03:09:01.875Z,3.97
2022-11-25T03:12:11.978Z,4.40
2022-11-25T03:14:58.903Z,3.72
2022-11-25T03:17:47.677Z,4.65
2022-11-25T03:20:35.279Z,4.65
2022-11-25T03:23:22.928Z,3.47
2022-11-25T03:26:10.118Z,3.70
2022-11-25T03:28:57.419Z,2.88
2022-11-25T03:31:44.690Z,3.75
2022-11-25T03:34:33.141Z,4.75
2022-11-25T03:37:20.938Z,4.65
2022-11-25T03:40:09.007Z,3.67
2022-11-25T03:42:55.944Z,4.22
2022-11-25T03:45:43.239Z,3.50
2022-11-25T03:48:30.396Z,3.70
2022-11-25T03:51:19.162Z,3.85
2022-11-25T03:54:06.386Z,3.55
2022-11-25T03:56:53.791Z,3.75
2022-11-25T03:59:41.283Z,3.47
2022-11-25T04:02:28.647Z,4.10
2022-11-25T04:05:15.760Z,3.38
2022-11-25T04:08:04.644Z,4.07
2022-11-25T04:10:52.250Z,4.05
2022-11-25T04:13:38.240Z,3.78
2022-11-25T04:16:26.547Z,3.65
2022-11-25T04:19:13.615Z,3.80
2022-11-25T04:22:02.784Z,3.60
2022-11-25T04:24:51.138Z,3.85
2022-11-25T04:27:38.406Z,3.65
2022-11-25T04:30:26.367Z,3.50
2022-11-25T04:33:13.555Z,3.40
2022-11-25T04:36:00.785Z,3.70
2022-11-25T04:38:48.203Z,4.28
2022-11-25T04:41:37.085Z,3.15
2022-11-25T04:44:24.282Z,3.05
2022-11-25T04:47:11.464Z,2.97
2022-11-25T04:49:58.953Z,3.35
2022-11-25T04:52:46.037Z,2.72
2022-11-25T04:55:33.051Z,3.80
2022-11-25T04:58:35.310Z,3.58
2022-11-25T05:01:22.684Z,2.90
2022-11-25T05:04:09.842Z,3.53
2022-11-25T05:06:57.027Z,3.00
2022-11-25T05:09:44.533Z,3.35
2022-11-25T05:12:31.915Z,2.95
2022-11-25T05:15:20.428Z,2.95
2022-11-25T05:18:07.314Z,3.15
2022-11-25T05:20:54.552Z,3.35
2022-11-25T05:23:41.996Z,2.88
2022-11-25T05:26:29.284Z,2.97
2022-11-25T05:29:16.521Z,3.70
2022-11-25T05:32:05.463Z,3.22
2022-11-25T05:34:52.422Z,3.95
2022-11-25T05:37:39.744Z,3.30
2022-11-25T05:40:27.081Z,3.63
2022-11-25T05:43:14.529Z,3.05
2022-11-25T05:46:05.393Z,3.15
2022-11-25T05:48:55.855Z,3.10
2022-11-25T05:51:43.058Z,3.90
2022-11-25T05:54:30.178Z,3.42
2022-11-25T05:57:17.435Z,3.33
2022-11-25T06:00:05.673Z,3.75
2022-11-25T06:02:53.218Z,3.17
2022-11-25T06:05:41.818Z,3.88
2022-11-25T06:08:29.247Z,3.58
2022-11-25T06:11:17.490Z,2.78
2022-11-25T06:14:04.620Z,4.35
2022-11-25T06:16:52.323Z,4.07
2022-11-25T06:19:39.543Z,3.88
2022-11-25T06:22:28.072Z,3.85
2022-11-25T06:25:16.021Z,3.67
2022-11-25T06:28:18.831Z,3.97
2022-11-25T06:31:10.032Z,4.07
2022-11-25T06:33:57.329Z,4.53
2022-11-25T06:36:44.555Z,4.35
2022-11-25T06:39:33.381Z,5.47
2022-11-25T06:42:20.693Z,5.20
2022-11-25T06:45:08.714Z,4.97
2022-11-25T06:47:56.184Z,5.88
2022-11-25T06:50:43.598Z,5.20
2022-11-25T06:53:31.645Z,5.95
2022-11-25T06:56:21.928Z,5.75
2022-11-25T06:59:08.929Z,4.32
2022-11-25T07:01:56.675Z,5.82
2022-11-25T07:04:44.727Z,5.18
2022-11-25T07:07:31.877Z,4.18
2022-11-25T07:10:18.811Z,5.43
2022-11-25T07:13:07.605Z,6.03
2022-11-25T07:15:54.813Z,5.53
2022-11-25T07:18:42.333Z,6.22
2022-11-25T07:21:29.720Z,6.38
2022-11-25T07:24:18.178Z,5.50
2022-11-25T07:27:06.546Z,5.80
2022-11-25T07:30:29.277Z,5.50
2022-11-25T07:33:02.235Z,5.82
2022-11-25T07:35:49.627Z,5.18
2022-11-25T07:38:39.909Z,5.22
2022-11-25T07:41:29.971Z,6.20
2022-11-25T07:44:17.384Z,6.05
2022-11-25T07:47:06.291Z,5.30
2022-11-25T07:49:53.650Z,5.15
2022-11-25T07:52:42.019Z,6.00
2022-11-25T07:55:28.966Z,6.68
2022-11-25T07:58:16.319Z,5.63
2022-11-25T08:01:03.866Z,6.20
2022-11-25T08:03:53.008Z,6.18
2022-11-25T08:06:40.687Z,5.18
2022-11-25T08:09:28.040Z,5.50
2022-11-25T08:12:15.347Z,5.63
2022-11-25T08:15:02.410Z,5.00
2022-11-25T08:17:52.662Z,5.07
2022-11-25T08:20:41.554Z,4.63
2022-11-25T08:23:29.249Z,4.95
2022-11-25T08:26:17.365Z,4.80
2022-11-25T08:29:05.179Z,5.40
2022-11-25T08:31:52.552Z,4.43
2022-11-25T08:34:39.997Z,4.88
2022-11-25T08:37:28.691Z,4.35
2022-11-25T08:40:15.833Z,5.32
2022-11-25T08:43:03.768Z,4.40
2022-11-25T08:45:51.758Z,4.97
2022-11-25T08:48:38.770Z,4.70
2022-11-25T08:51:26.898Z,4.47
2022-11-25T08:54:15.714Z,5.32
2022-11-25T08:57:02.662Z,4.15
2022-11-25T08:59:49.903Z,4.25
2022-11-25T09:02:37.319Z,4.43
2022-11-25T09:05:24.457Z,4.28
2022-11-25T09:08:12.951Z,4.55
2022-11-25T09:11:01.393Z,4.43
2022-11-25T09:13:49.075Z,4.03
2022-11-25T09:16:36.378Z,4.20
2022-11-25T09:19:23.459Z,4.47
2022-11-25T09:22:10.768Z,5.22
2022-11-25T09:24:58.086Z,4.53
2022-11-25T09:27:47.215Z,4.65
2022-11-25T09:30:34.644Z,4.90
2022-11-25T09:33:21.947Z,4.78
2022-11-25T09:36:09.358Z,4.30
2022-11-25T09:38:57.184Z,4.57
2022-11-25T09:42:08.355Z,4.85
2022-11-25T09:45:20.701Z,4.13
2022-11-25T09:48:21.084Z,5.18
2022-11-25T09:51:13.711Z,4.55
2022-11-25T09:54:04.939Z,4.93
2022-11-25T09:56:54.517Z,5.38
2022-11-25T09:59:44.963Z,5.07
2022-11-25T10:02:36.414Z,4.93
2022-11-25T10:05:26.413Z,4.85
2022-11-25T10:08:16.984Z,5.75
2022-11-25T10:11:08.814Z,5.78
2022-11-25T10:13:58.111Z,5.82
2022-11-25T10:16:51.783Z,5.70
2022-11-25T10:19:49.632Z,6.07
2022-11-25T10:22:37.710Z,5.70
2022-11-25T10:25:25.556Z,5.95
2022-11-25T10:28:17.001Z,5.55
2022-11-25T10:31:06.091Z,5.68
2022-11-25T10:33:54.392Z,5.03
2022-11-25T10:36:43.505Z,6.07
2022-11-25T10:39:32.774Z,5.72
2022-11-25T10:42:21.937Z,4.82
2022-11-25T10:45:09.479Z,5.30
2022-11-25T10:48:04.228Z,6.35
2022-11-25T10:50:58.653Z,6.78
2022-11-25T10:54:00.979Z,6.50
2022-11-25T10:56:52.475Z,6.22
2022-11-25T10:59:40.918Z,6.00
2022-11-25T11:02:30.068Z,5.97
2022-11-25T11:05:19.576Z,6.13
2022-11-25T11:08:09.321Z,6.18
2022-11-25T11:11:12.591Z,6.93
2022-11-25T11:14:13.331Z,6.40
2022-11-25T11:17:00.723Z,7.22
2022-11-25T11:20:01.296Z,6.63
2022-11-25T11:22:50.516Z,6.82
2022-11-25T11:25:38.724Z,7.07
2022-11-25T11:28:28.011Z,7.15
2022-11-25T11:31:19.352Z,6.82
2022-11-25T11:34:12.895Z,7.32
2022-11-25T11:37:09.344Z,7.38
2022-11-25T11:40:01.287Z,7.35
2022-11-25T11:42:54.338Z,6.43
2022-11-25T11:45:51.678Z,6.43
2022-11-25T11:48:41.887Z,7.15
2022-11-25T11:51:32.722Z,6.10
2022-11-25T11:54:23.923Z,6.55
2022-11-25T11:57:14.247Z,6.07
2022-11-25T12:00:03.244Z,5.68
2022-11-25T12:02:56.006Z,5.65
2022-11-25T12:05:44.989Z,4.93
2022-11-25T12:08:35.597Z,5.03
2022-11-25T12:11:26.312Z,5.32
2022-11-25T12:14:25.279Z,5.60
2022-11-25T12:17:16.580Z,5.50
2022-11-25T12:20:07.443Z,4.90
2022-11-25T12:22:59.348Z,4.90
2022-11-25T12:25:48.995Z,5.15
2022-11-25T12:28:38.840Z,4.90
2022-11-25T12:31:27.847Z,5.10
2022-11-25T12:34:18.130Z,5.15
2022-11-25T12:37:15.332Z,5.13
2022-11-25T12:40:07.370Z,4.32
2022-11-25T12:42:56.423Z,3.67
2022-11-25T12:45:44.627Z,4.85
2022-11-25T12:48:32.377Z,3.97
2022-11-25T12:51:28.332Z,5.70
2022-11-25T12:54:24.799Z,4.00
2022-11-25T12:57:24.265Z,4.70
2022-11-25T13:03:36.220Z,4.75
2022-11-25T13:06:38.928Z,4.30
2022-11-25T13:09:33.666Z,4.28
2022-11-25T13:15:20.342Z,4.32
2022-11-25T13:18:11.934Z,4.97
2022-11-25T13:21:06.758Z,5.15
2022-11-25T13:23:56.293Z,6.57
2022-11-25T13:26:48.663Z,6.80
2022-11-25T13:29:57.308Z,10.63
2022-11-25T13:32:46.120Z,11.35
2022-11-25T13:35:35.954Z,10.73
2022-11-25T13:38:36.446Z,10.48
2022-11-25T13:41:25.600Z,12.07
2022-11-25T13:44:18.966Z,8.60
2022-11-25T13:47:30.140Z,5.95
2022-11-25T13:50:28.923Z,5.53
2022-11-25T13:53:34.027Z,5.20
2022-11-25T13:56:27.540Z,4.43
2022-11-25T13:59:33.216Z,5.47
2022-11-25T14:02:32.858Z,4.65
2022-11-25T14:05:32.671Z,4.50
2022-11-25T14:08:27.810Z,5.40
2022-11-25T14:11:34.010Z,5.05
2022-11-25T14:14:26.883Z,3.95
2022-11-25T14:17:25.913Z,5.50
2022-11-25T14:20:20.959Z,6.50
2022-11-25T14:23:31.569Z,5.78
2022-11-25T14:26:48.317Z,5.00
2022-11-25T14:29:38.110Z,5.82
2022-11-25T14:32:29.287Z,5.20
2022-11-25T14:35:18.100Z,5.80
2022-11-25T14:38:08.219Z,4.88
2022-11-25T14:41:00.161Z,5.00
2022-11-25T14:43:51.967Z,5.60
2022-11-25T14:46:51.647Z,6.35
2022-11-25T14:49:49.179Z,6.13
2022-11-25T14:52:48.366Z,5.28
2022-11-25T14:55:36.763Z,6.07
2022-11-25T14:58:25.370Z,6.70
2022-11-25T15:01:19.152Z,5.97
2022-11-25T15:04:07.345Z,6.10
2022-11-25T15:06:56.876Z,5.88
2022-11-25T15:09:45.390Z,5.35
2022-11-25T15:12:34.206Z,4.05
2022-11-25T15:15:22.581Z,4.10
2022-11-25T15:18:16.039Z,4.50
2022-11-25T15:21:03.184Z,4.22
2022-11-25T15:23:50.649Z,4.25
2022-11-25T15:26:37.722Z,4.93
2022-11-25T15:29:25.095Z,6.65
2022-11-25T15:32:16.552Z,6.15
2022-11-25T15:35:03.633Z,9.10
2022-11-25T15:37:51.069Z,6.30
2022-11-25T15:40:43.182Z,6.60
2022-11-25T15:43:31.756Z,9.38
2022-11-25T15:46:19.298Z,7.07
2022-11-25T15:49:09.099Z,4.10
2022-11-25T15:51:57.427Z,4.20
2022-11-25T15:54:45.683Z,4.05
2022-11-25T15:57:34.176Z,3.17
2022-11-25T16:00:23.151Z,3.60
2022-11-25T16:03:20.633Z,3.22
2022-11-25T16:06:20.534Z,3.30
2022-11-25T16:09:20.660Z,4.75
2022-11-25T16:12:10.244Z,3.90
2022-11-25T16:14:57.139Z,3.65
2022-11-25T16:17:44.570Z,3.42
2022-11-25T16:20:32.008Z,4.60
2022-11-25T16:23:21.485Z,4.18
2022-11-25T16:26:15.049Z,6.50
2022-11-25T16:29:03.520Z,5.95
2022-11-25T16:31:50.855Z,5.63
2022-11-25T16:34:38.549Z,6.95
2022-11-25T16:37:26.167Z,5.07
2022-11-25T16:40:14.525Z,4.15
2022-11-25T16:43:02.998Z,5.97
2022-11-25T16:45:51.552Z,4.93
2022-11-25T16:48:38.620Z,4.45
2022-11-25T16:51:26.115Z,5.20
2022-11-25T16:54:13.327Z,4.95
2022-11-25T16:57:00.423Z,5.13
2022-11-25T16:59:53.274Z,4.72
2022-11-25T17:02:45.018Z,6.55
2022-11-25T17:05:32.359Z,7.22
2022-11-25T17:08:19.964Z,7.72
2022-11-25T17:11:07.268Z,5.95
2022-11-25T17:13:54.964Z,6.40
2022-11-25T17:16:44.625Z,5.90
2022-11-25T17:19:31.780Z,6.20
2022-11-25T17:22:19.927Z,5.97
2022-11-25T17:25:07.138Z,4.82
2022-11-25T17:27:54.878Z,3.40
2022-11-25T17:30:41.864Z,3.50
2022-11-25T17:33:30.765Z,4.00
2022-11-25T17:36:18.027Z,4.13
2022-11-25T17:39:05.210Z,4.30
2022-11-25T17:41:52.819Z,4.63
2022-11-25T17:44:42.253Z,3.85
2022-11-25T17:47:29.671Z,4.55
2022-11-25T17:50:19.847Z,4.22
2022-11-25T17:53:07.259Z,4.53
2022-11-25T17:55:54.295Z,4.10
2022-11-25T17:58:41.756Z,4.05
2022-11-25T18:01:28.783Z,3.90
2022-11-25T18:04:17.194Z,3.35
2022-11-25T18:07:05.694Z,4.00
2022-11-25T18:09:53.003Z,4.35
2022-11-25T18:12:40.444Z,4.93
2022-11-25T18:15:28.634Z,4.38
2022-11-25T18:18:20.154Z,5.03
2022-11-25T18:21:07.408Z,3.92
2022-11-25T18:23:56.223Z,4.28
2022-11-25T18:26:44.894Z,3.92
2022-11-25T18:29:31.952Z,4.47
2022-11-25T18:32:19.424Z,4.25
2022-11-25T18:35:10.794Z,4.75
2022-11-25T18:37:58.227Z,4.18
2022-11-25T18:40:53.093Z,5.40
2022-11-25T18:43:40.837Z,6.50
2022-11-25T18:46:28.235Z,4.63
2022-11-25T18:49:15.692Z,6.20
2022-11-25T18:52:02.940Z,4.47
2022-11-25T18:54:50.215Z,5.05
2022-11-25T18:57:39.139Z,5.32
2022-11-25T19:00:33.320Z,5.63
2022-11-25T19:03:21.842Z,5.35
2022-11-25T19:06:14.604Z,5.53
2022-11-25T19:09:03.498Z,5.97
2022-11-25T19:11:52.416Z,6.07
2022-11-25T19:14:41.896Z,6.28
2022-11-25T19:17:28.844Z,5.55
2022-11-25T19:20:16.747Z,5.18
2022-11-25T19:23:12.991Z,5.30
2022-11-25T19:26:01.450Z,4.65
2022-11-25T19:28:50.818Z,5.00
2022-11-25T19:31:39.383Z,4.88
2022-11-25T19:34:28.221Z,5.03
2022-11-25T19:37:17.158Z,5.07
2022-11-25T19:40:09.261Z,4.10
2022-11-25T19:42:56.291Z,4.80
2022-11-25T19:45:43.720Z,4.82
2022-11-25T19:48:35.920Z,5.80
2022-11-25T19:51:24.372Z,6.10
2022-11-25T19:54:13.335Z,7.30
2022-11-25T19:57:00.538Z,8.13
2022-11-25T19:59:48.087Z,7.90
2022-11-25T20:02:35.540Z,7.70
2022-11-25T20:05:25.588Z,7.68
2022-11-25T20:08:17.836Z,7.03
2022-11-25T20:11:05.774Z,8.63
2022-11-25T20:13:53.078Z,7.78
2022-11-25T20:16:42.272Z,8.30
2022-11-25T20:19:29.321Z,8.35
2022-11-25T20:22:18.698Z,8.93
2022-11-25T20:25:07.828Z,7.80
2022-11-25T20:27:55.060Z,9.00
2022-11-25T20:30:42.354Z,9.43
2022-11-25T20:33:29.622Z,9.75
2022-11-25T20:36:18.506Z,9.02
2022-11-25T20:39:07.334Z,9.25
2022-11-25T20:41:54.627Z,9.25
2022-11-25T20:44:41.993Z,8.20
2022-11-25T20:47:30.076Z,9.00
2022-11-25T20:50:17.519Z,8.55
2022-11-25T20:53:04.565Z,8.65
2022-11-25T20:55:53.238Z,9.35
2022-11-25T20:58:40.728Z,10.13
2022-11-25T21:01:28.070Z,8.52
2022-11-25T21:04:15.039Z,9.43
2022-11-25T21:07:02.359Z,8.48
2022-11-25T21:09:49.670Z,8.75
2022-11-25T21:12:38.508Z,8.95
2022-11-25T21:15:26.235Z,8.65
2022-11-25T21:18:13.911Z,9.52
2022-11-25T21:21:01.403Z,9.43
2022-11-25T21:23:48.980Z,9.50
2022-11-25T21:26:36.115Z,9.32
2022-11-25T21:29:25.096Z,9.30
2022-11-25T21:32:19.043Z,10.27
2022-11-25T21:35:06.727Z,9.40
2022-11-25T21:37:53.731Z,9.48
2022-11-25T21:40:42.238Z,8.55
2022-11-25T21:43:31.575Z,9.45
2022-11-25T21:46:21.397Z,11.93
2022-11-25T21:49:11.513Z,9.60
2022-11-25T21:51:58.481Z,11.10
2022-11-25T21:54:45.851Z,9.98
2022-11-25T21:57:33.240Z,9.63
2022-11-25T22:00:22.703Z,9.82
2022-11-25T22:03:15.513Z,10.68
2022-11-25T22:06:03.026Z,11.27
2022-11-25T22:08:50.597Z,11.23
2022-11-25T22:11:39.057Z,13.18
2022-11-25T22:14:29.085Z,11.60
2022-11-25T22:17:19.237Z,12.48
2022-11-25T22:20:20.240Z,13.95
2022-11-25T22:23:12.199Z,15.10
2022-11-25T22:25:59.426Z,15.80
2022-11-25T22:28:48.563Z,15.60
2022-11-25T22:31:36.008Z,17.55
2022-11-25T22:34:24.278Z,15.80
2022-11-25T22:37:18.090Z,16.23
2022-11-25T22:40:05.360Z,16.17
2022-11-25T22:42:53.257Z,18.42
2022-11-25T22:45:40.506Z,16.60
2022-11-25T22:48:30.903Z,19.48
2022-11-25T22:51:18.715Z,17.65
2022-11-25T22:54:12.044Z,19.23
2022-11-25T22:56:59.303Z,17.77
2022-11-25T22:59:46.580Z,16.48
2022-11-25T23:02:35.102Z,18.52
2022-11-25T23:05:29.109Z,19.52
2022-11-25T23:08:20.551Z,18.80
2022-11-25T23:11:15.025Z,16.17
2022-11-25T23:14:02.099Z,16.95
2022-11-25T23:16:49.506Z,16.65
2022-11-25T23:19:36.530Z,17.08
2022-11-25T23:22:23.878Z,17.42
2022-11-25T23:25:14.215Z,17.50
2022-11-25T23:28:02.938Z,17.73
2022-11-25T23:30:51.619Z,17.70
2022-11-25T23:33:39.672Z,16.95
2022-11-25T23:36:28.263Z,16.02
2022-11-25T23:39:20.284Z,16.90
2022-11-25T23:42:12.025Z,18.88
2022-11-25T23:45:00.768Z,17.92
2022-11-25T23:47:49.415Z,18.58
2022-11-25T23:50:36.510Z,17.88
2022-11-25T23:53:25.853Z,18.95
2022-11-25T23:56:14.189Z,17.83
2022-11-25T23:59:01.623Z,18.05
